Aviation Digital Data Service (ADDS)

Output produced by METARs form (0928 UTC 29 July 2015)
found at http://aviationweather.gov/adds/metars/
 
KILG 290533Z 2906/3006 25004KT P6SM SKC 
     FM290900 23003KT 5SM BR SKC 
     FM291300 23005KT P6SM SKC 
     FM291800 20009KT P6SM SCT060